Time;durP1;ratioP1;P1;durP2;ratioP2;P2;SDS_P1;SDS_P2;PMS_P1;PMS_P2;Temp;Humidity;BMP_temperature;BMP_pressure;BME280_temperature;BME280_humidity;BME280_pressure;Samples;Min_cycle;Max_cycle;Signal;HPM_P1;HPM_P2
2022/03/22 00:00:08;;;;;;;42.40;38.15;;;27.30;84.50;;;;;;5064848;28;20017;-43
2022/03/22 00:02:34;;;;;;;41.92;37.78;;;27.30;84.70;;;;;;5064821;28;20043;-42
2022/03/22 00:05:01;;;;;;;41.50;37.40;;;27.30;84.80;;;;;;5064393;28;20009;-42
2022/03/22 00:07:28;;;;;;;41.75;37.42;;;27.30;85.00;;;;;;5064867;28;20024;-48
2022/03/22 00:09:55;;;;;;;40.03;36.22;;;27.30;84.90;;;;;;5064037;28;20040;-43
2022/03/22 00:12:21;;;;;;;39.03;34.88;;;27.30;85.00;;;;;;5064577;28;20312;-45
2022/03/22 00:14:48;;;;;;;37.88;34.03;;;27.30;84.80;;;;;;5063415;28;20032;-46
2022/03/22 00:17:15;;;;;;;38.08;33.42;;;27.30;84.90;;;;;;5067741;28;20033;-45
2022/03/22 00:19:41;;;;;;;38.58;34.50;;;27.20;84.80;;;;;;5084411;28;20204;-50
2022/03/22 00:22:11;;;;;;;39.03;33.30;;;27.20;84.70;;;;;;5089472;28;20092;-50
2022/03/22 00:24:38;;;;;;;36.30;32.85;;;27.20;84.60;;;;;;5083798;28;20020;-45
2022/03/22 00:27:05;;;;;;;35.50;31.98;;;27.30;84.70;;;;;;5084276;28;20028;-46
2022/03/22 00:29:31;;;;;;;35.67;31.98;;;27.20;84.50;;;;;;5083808;28;20275;-44
2022/03/22 00:31:58;;;;;;;36.83;31.50;;;27.20;84.50;;;;;;5084669;28;20065;-47
2022/03/22 00:34:25;;;;;;;34.10;30.52;;;27.20;84.40;;;;;;5084050;28;20040;-46
2022/03/22 00:36:58;;;;;;;76.78;34.35;;;27.30;84.30;;;;;;5084499;28;20402;-50
2022/03/22 00:39:26;;;;;;;79.35;34.65;;;27.20;84.30;;;;;;5083542;28;20388;-45
2022/03/22 00:41:53;;;;;;;51.95;31.00;;;27.20;84.10;;;;;;5084183;28;20200;-46
2022/03/22 00:44:20;;;;;;;43.10;29.77;;;27.20;84.10;;;;;;5083905;28;20032;-43
2022/03/22 00:46:47;;;;;;;34.22;28.88;;;27.20;84.20;;;;;;5078127;28;20048;-43
2022/03/22 00:49:14;;;;;;;31.20;27.85;;;27.20;84.10;;;;;;5073614;28;20245;-44
2022/03/22 00:51:41;;;;;;;34.80;29.45;;;27.20;83.80;;;;;;5074122;28;20025;-45
2022/03/22 00:54:08;;;;;;;34.03;28.55;;;27.20;83.80;;;;;;5072332;28;20304;-44
2022/03/22 00:56:35;;;;;;;31.17;27.50;;;27.20;83.80;;;;;;5071849;28;20029;-43
2022/03/22 01:01:49;;;;;;;28.77;25.90;;;27.20;83.60;;;;;;5069282;28;20031;-40
2022/03/22 01:04:16;;;;;;;29.08;26.13;;;27.10;83.70;;;;;;5075173;28;20059;-45
2022/03/22 01:06:44;;;;;;;28.98;26.08;;;27.20;83.70;;;;;;5066642;28;20057;-48
2022/03/22 01:09:10;;;;;;;27.85;25.05;;;27.10;83.20;;;;;;5068364;28;20025;-43
2022/03/22 01:11:39;;;;;;;29.13;25.42;;;27.10;83.30;;;;;;5083903;28;20040;-46
2022/03/22 01:14:07;;;;;;;32.70;25.33;;;27.10;83.20;;;;;;5080219;28;20033;-44
2022/03/22 01:16:34;;;;;;;28.48;25.45;;;27.10;83.00;;;;;;5072775;28;20021;-43
2022/03/22 01:19:02;;;;;;;28.23;25.60;;;27.10;83.10;;;;;;5072782;28;20032;-43
2022/03/22 01:21:29;;;;;;;27.90;24.92;;;27.00;82.90;;;;;;5083603;28;20304;-48
2022/03/22 01:23:56;;;;;;;27.50;24.58;;;27.00;82.70;;;;;;5082711;28;20323;-46
2022/03/22 01:26:24;;;;;;;26.70;23.83;;;27.00;82.70;;;;;;5083674;28;20095;-48
2022/03/22 01:28:51;;;;;;;26.88;24.08;;;27.00;82.60;;;;;;5083542;28;20033;-46
2022/03/22 01:31:20;;;;;;;27.30;24.58;;;27.00;82.50;;;;;;5082524;28;20024;-46
2022/03/22 01:33:47;;;;;;;26.38;23.88;;;27.00;82.50;;;;;;5083580;28;20040;-48
2022/03/22 01:36:14;;;;;;;26.35;23.80;;;27.00;82.30;;;;;;5082323;28;20033;-51
2022/03/22 01:38:42;;;;;;;26.55;23.90;;;27.00;82.30;;;;;;5083151;28;20087;-47
2022/03/22 01:41:08;;;;;;;26.70;23.98;;;27.00;81.90;;;;;;5082877;28;20301;-48
2022/03/22 01:43:37;;;;;;;30.17;24.77;;;27.00;81.50;;;;;;5083710;28;20037;-49
2022/03/22 01:46:03;;;;;;;26.35;23.55;;;26.90;81.40;;;;;;5082667;28;20264;-52
2022/03/22 01:48:32;;;;;;;27.85;23.63;;;27.00;81.70;;;;;;5083220;28;20083;-49
2022/03/22 01:50:59;;;;;;;26.77;23.42;;;27.00;81.70;;;;;;5083149;28;20036;-55
2022/03/22 01:53:26;;;;;;;28.75;24.15;;;27.00;81.40;;;;;;5083009;28;20021;-45
2022/03/22 01:55:53;;;;;;;49.67;25.65;;;27.00;81.40;;;;;;5082878;28;20097;-45
2022/03/22 01:58:20;;;;;;;36.70;25.30;;;27.00;81.30;;;;;;5083044;28;20048;-43
2022/03/22 02:00:47;;;;;;;42.50;26.17;;;26.90;81.30;;;;;;5084609;28;20016;-43
2022/03/22 02:06:01;;;;;;;30.45;23.90;;;26.90;81.20;;;;;;5086386;28;20055;-49
2022/03/22 02:08:32;;;;;;;37.53;24.88;;;27.00;81.60;;;;;;5086589;28;20024;-45
2022/03/22 02:11:00;;;;;;;34.90;24.27;;;26.90;82.00;;;;;;5086550;28;20044;-46
2022/03/22 02:13:29;;;;;;;44.65;24.48;;;26.90;81.60;;;;;;5084110;28;20059;-48
2022/03/22 02:16:00;;;;;;;33.42;22.83;;;26.90;81.50;;;;;;5086703;28;20050;-44
2022/03/22 02:18:27;;;;;;;28.17;22.73;;;26.90;81.30;;;;;;5086625;28;20043;-46
2022/03/22 02:20:54;;;;;;;30.52;22.10;;;26.90;81.00;;;;;;5086333;28;20209;-45
2022/03/22 02:23:34;;;;;;;27.63;21.98;;;26.90;81.30;;;;;;5086331;28;20059;-46
2022/03/22 02:26:01;;;;;;;29.00;22.70;;;26.90;81.30;;;;;;5084362;28;20016;-47
2022/03/22 02:28:30;;;;;;;25.08;22.52;;;26.90;81.20;;;;;;5085010;28;20028;-46
2022/03/22 02:30:56;;;;;;;28.52;23.13;;;26.90;81.10;;;;;;5086342;28;20033;-48
2022/03/22 02:33:23;;;;;;;25.88;21.90;;;26.90;80.80;;;;;;5086332;28;20032;-47
2022/03/22 02:35:50;;;;;;;25.85;22.67;;;26.90;80.60;;;;;;5086058;28;20062;-46
2022/03/22 02:38:16;;;;;;;24.55;21.33;;;26.80;80.70;;;;;;5085981;28;20094;-48
2022/03/22 02:40:45;;;;;;;24.38;21.65;;;26.90;80.40;;;;;;5085644;28;20099;-51
2022/03/22 02:43:11;;;;;;;24.88;21.98;;;26.80;80.20;;;;;;5081878;28;20035;-48
2022/03/22 02:45:38;;;;;;;25.23;21.75;;;26.80;80.30;;;;;;5080019;28;20135;-49
2022/03/22 02:48:05;;;;;;;34.05;30.33;;;26.80;80.20;;;;;;5086042;28;20024;-52
2022/03/22 02:50:31;;;;;;;28.13;24.85;;;26.80;80.20;;;;;;5086287;28;20048;-48
2022/03/22 02:53:00;;;;;;;43.22;38.75;;;26.80;80.20;;;;;;5086183;28;20035;-49
2022/03/22 02:55:27;;;;;;;29.70;26.50;;;26.80;79.90;;;;;;5085904;28;20021;-53
2022/03/22 02:57:53;;;;;;;27.55;24.73;;;26.90;80.10;;;;;;5085869;28;20074;-50
2022/03/22 03:00:21;;;;;;;28.58;24.02;;;26.90;80.10;;;;;;5086007;28;20332;-49
2022/03/22 03:02:50;;;;;;;26.70;23.23;;;26.90;80.10;;;;;;5086215;28;20023;-53
2022/03/22 03:05:17;;;;;;;25.13;22.23;;;26.80;79.70;;;;;;5085838;28;20040;-49
2022/03/22 03:07:44;;;;;;;24.95;22.25;;;26.90;79.70;;;;;;5085933;28;20016;-50
2022/03/22 03:10:11;;;;;;;25.20;21.58;;;26.90;79.50;;;;;;5085667;28;20025;-47
2022/03/22 03:12:38;;;;;;;24.88;21.70;;;26.90;79.20;;;;;;5085302;28;20209;-49
2022/03/22 03:15:07;;;;;;;23.30;20.92;;;26.90;79.20;;;;;;5085727;28;20332;-49
2022/03/22 03:17:33;;;;;;;23.10;20.80;;;26.90;79.20;;;;;;5085365;28;20062;-47
2022/03/22 03:20:00;;;;;;;24.27;20.35;;;26.90;79.20;;;;;;5085867;28;20070;-49
2022/03/22 03:22:27;;;;;;;25.20;20.55;;;26.90;78.90;;;;;;5085827;28;20209;-49
2022/03/22 03:24:54;;;;;;;21.90;19.52;;;26.90;79.00;;;;;;5085433;28;20190;-50
2022/03/22 03:27:22;;;;;;;24.77;20.75;;;26.90;79.00;;;;;;5085764;28;20032;-50
2022/03/22 03:29:49;;;;;;;22.95;19.60;;;26.90;78.90;;;;;;5085320;28;20074;-49
2022/03/22 03:32:16;;;;;;;22.92;19.88;;;26.90;78.70;;;;;;5085619;28;20032;-46
2022/03/22 03:34:43;;;;;;;25.55;22.95;;;26.80;78.80;;;;;;5085311;28;20045;-49
2022/03/22 03:37:10;;;;;;;30.35;25.10;;;26.80;78.70;;;;;;5085089;28;20059;-48
2022/03/22 03:39:38;;;;;;;26.75;23.58;;;26.90;79.00;;;;;;5085138;28;20025;-56
2022/03/22 03:42:06;;;;;;;26.13;22.48;;;26.90;78.70;;;;;;5085439;28;20028;-49
2022/03/22 03:47:22;;;;;;;24.70;20.27;;;26.90;78.70;;;;;;5085254;28;20035;-48
2022/03/22 03:49:57;;;;;;;24.52;20.90;;;26.90;78.90;;;;;;5084948;28;20064;-53
2022/03/22 03:52:29;;;;;;;23.85;20.38;;;26.90;78.90;;;;;;5085125;28;20096;-49
2022/03/22 03:54:57;;;;;;;22.98;20.50;;;26.80;78.80;;;;;;5084812;28;20032;-48
2022/03/22 03:57:25;;;;;;;20.75;18.70;;;26.80;78.60;;;;;;5084594;28;20100;-48
2022/03/22 03:59:52;;;;;;;23.23;18.92;;;26.90;78.80;;;;;;5084678;28;20343;-51
2022/03/22 04:02:19;;;;;;;24.85;19.95;;;26.80;78.80;;;;;;5085012;28;20296;-50
2022/03/22 04:04:51;;;;;;;21.83;19.60;;;26.80;79.20;;;;;;5084592;28;20032;-50
2022/03/22 04:07:20;;;;;;;23.52;19.33;;;26.80;79.40;;;;;;5084916;28;20028;-49
2022/03/22 04:09:46;;;;;;;22.75;19.08;;;26.80;79.40;;;;;;5084556;28;20043;-48
2022/03/22 04:12:13;;;;;;;22.15;18.90;;;26.80;79.30;;;;;;5084725;28;20031;-49
2022/03/22 04:14:40;;;;;;;23.25;20.02;;;26.80;79.70;;;;;;5084429;28;20323;-50
2022/03/22 04:17:10;;;;;;;20.75;18.50;;;26.80;79.50;;;;;;5084614;28;20037;-50
2022/03/22 04:19:37;;;;;;;23.60;18.73;;;26.80;79.90;;;;;;5084485;28;20028;-51
2022/03/22 04:22:04;;;;;;;20.98;17.92;;;26.80;79.50;;;;;;5084696;28;20299;-49
2022/03/22 04:24:31;;;;;;;23.08;18.80;;;26.80;79.30;;;;;;5083894;28;20084;-53
2022/03/22 04:32:41;;;;;;;20.98;18.90;;;26.80;79.20;;;;;;5084439;28;20024;-51
2022/03/22 04:32:43;;;;;;;20.95;18.27;;;26.80;79.10;;;;;;5084486;28;20028;-48
2022/03/22 04:35:17;;;;;;;20.50;18.13;;;26.80;79.10;;;;;;5084295;28;20103;-50
2022/03/22 04:37:45;;;;;;;20.52;18.42;;;26.80;78.80;;;;;;5084352;28;20367;-49
2022/03/22 04:40:39;;;;;;;21.42;18.85;;;26.70;79.10;;;;;;5084485;28;20269;-48
2022/03/22 04:43:06;;;;;;;22.52;18.67;;;26.80;79.30;;;;;;5084670;28;20099;-48
2022/03/22 04:45:35;;;;;;;26.20;19.30;;;26.70;79.60;;;;;;5084161;28;20029;-48
2022/03/22 04:48:02;;;;;;;23.40;18.85;;;26.70;79.70;;;;;;5084684;28;20024;-45
2022/03/22 04:50:28;;;;;;;20.55;18.45;;;26.70;79.40;;;;;;5084668;28;20039;-49
2022/03/22 04:58:24;;;;;;;24.00;19.20;;;26.70;79.30;;;;;;5083946;28;20233;-48
2022/03/22 05:00:51;;;;;;;23.63;17.83;;;26.70;79.20;;;;;;5083948;28;20312;-49
2022/03/22 05:03:18;;;;;;;21.33;17.90;;;26.70;79.50;;;;;;5084012;28;20074;-49
2022/03/22 05:08:29;;;;;;;20.15;18.05;;;26.70;79.60;;;;;;5083924;28;20042;-50
2022/03/22 05:10:56;;;;;;;21.08;18.85;;;26.70;79.70;;;;;;5084140;28;20028;-50
2022/03/22 05:13:22;;;;;;;29.92;24.52;;;26.70;79.90;;;;;;5084042;28;20040;-52
2022/03/22 05:15:49;;;;;;;30.08;26.05;;;26.60;79.70;;;;;;5083941;28;20342;-49
2022/03/22 05:18:16;;;;;;;27.50;24.42;;;26.60;79.50;;;;;;5083868;28;20032;-49
2022/03/22 05:20:42;;;;;;;28.40;24.00;;;26.60;79.30;;;;;;5083808;28;20312;-47
2022/03/22 05:23:09;;;;;;;23.80;21.33;;;26.70;79.40;;;;;;5083664;28;20036;-49
2022/03/22 05:25:36;;;;;;;24.50;21.80;;;26.70;79.00;;;;;;5083748;28;20032;-49
2022/03/22 05:28:03;;;;;;;24.55;21.58;;;26.70;79.20;;;;;;5084191;28;20202;-49
2022/03/22 05:30:31;;;;;;;25.80;21.98;;;26.70;79.20;;;;;;5083869;28;20105;-49
2022/03/22 05:32:58;;;;;;;23.13;19.92;;;26.70;79.40;;;;;;5084151;28;20033;-52
2022/03/22 05:35:24;;;;;;;22.00;19.55;;;26.70;79.50;;;;;;5086495;28;20043;-50
2022/03/22 05:37:51;;;;;;;24.02;19.55;;;26.70;79.60;;;;;;5088083;28;20029;-49
2022/03/22 05:40:18;;;;;;;22.52;19.30;;;26.70;79.40;;;;;;5087512;28;20039;-49
2022/03/22 05:42:45;;;;;;;20.77;18.52;;;26.70;79.30;;;;;;5087400;28;20033;-49
2022/03/22 05:45:12;;;;;;;23.02;19.05;;;26.60;79.70;;;;;;5087360;28;20028;-49
2022/03/22 05:47:39;;;;;;;20.80;18.70;;;26.70;79.80;;;;;;5087765;28;20062;-48
2022/03/22 05:50:07;;;;;;;20.45;18.27;;;26.70;79.90;;;;;;5087248;28;20036;-48
2022/03/22 05:52:34;;;;;;;20.95;18.80;;;26.70;80.00;;;;;;5087555;28;20021;-48
2022/03/22 05:55:00;;;;;;;20.77;18.40;;;26.70;79.80;;;;;;5087534;28;20055;-50
2022/03/22 05:57:27;;;;;;;19.88;17.65;;;26.70;79.80;;;;;;5087140;28;20037;-50
2022/03/22 05:59:54;;;;;;;19.95;17.85;;;26.70;79.50;;;;;;5087213;28;20033;-50
2022/03/22 06:02:20;;;;;;;19.88;17.80;;;26.70;79.80;;;;;;5087588;28;20142;-49
2022/03/22 06:04:48;;;;;;;21.20;17.27;;;26.60;79.50;;;;;;5087043;28;20043;-50
2022/03/22 06:07:15;;;;;;;19.25;17.23;;;26.70;79.20;;;;;;5087229;28;20194;-49
2022/03/22 06:09:41;;;;;;;20.00;17.83;;;26.60;79.40;;;;;;5087228;28;20033;-49
2022/03/22 06:12:08;;;;;;;19.20;17.27;;;26.60;79.50;;;;;;5087346;28;20225;-49
2022/03/22 06:14:35;;;;;;;19.55;16.65;;;26.60;79.00;;;;;;5086796;28;20381;-52
2022/03/22 06:17:01;;;;;;;19.05;16.90;;;26.60;79.10;;;;;;5087198;28;20024;-54
2022/03/22 06:19:28;;;;;;;19.50;17.35;;;26.60;79.20;;;;;;5086721;28;20040;-59
2022/03/22 06:21:54;;;;;;;19.50;17.52;;;26.70;79.40;;;;;;5086884;28;20028;-48
2022/03/22 06:24:21;;;;;;;19.02;16.98;;;26.70;79.30;;;;;;5086812;28;20031;-51
2022/03/22 06:26:47;;;;;;;20.42;17.30;;;26.60;79.50;;;;;;5086719;28;20069;-49
2022/03/22 06:29:14;;;;;;;19.85;16.98;;;26.70;79.00;;;;;;5086625;28;20044;-50
2022/03/22 06:31:40;;;;;;;19.40;16.63;;;26.60;78.80;;;;;;5087074;28;20032;-52
2022/03/22 06:34:07;;;;;;;20.17;17.10;;;26.70;79.00;;;;;;5086524;28;20028;-53
2022/03/22 06:36:33;;;;;;;22.25;17.60;;;26.70;79.30;;;;;;5086558;28;20047;-49
2022/03/22 06:39:00;;;;;;;19.95;17.08;;;26.70;79.50;;;;;;5086631;28;20029;-50
2022/03/22 06:41:26;;;;;;;21.42;17.45;;;26.60;79.30;;;;;;5086573;28;20243;-50
2022/03/22 06:43:54;;;;;;;19.13;16.80;;;26.60;79.20;;;;;;5086275;28;20340;-48
2022/03/22 06:46:22;;;;;;;18.67;16.38;;;26.60;78.90;;;;;;5085736;28;20079;-48
2022/03/22 06:48:49;;;;;;;23.27;16.80;;;26.60;78.70;;;;;;5086108;28;20082;-52
2022/03/22 06:51:16;;;;;;;18.00;16.20;;;26.70;79.00;;;;;;5086229;28;20035;-47
2022/03/22 06:53:42;;;;;;;19.77;16.88;;;26.70;78.60;;;;;;5086413;28;20033;-50
2022/03/22 06:56:09;;;;;;;21.23;16.75;;;26.60;78.70;;;;;;5086306;28;20037;-53
2022/03/22 06:58:35;;;;;;;19.52;17.52;;;26.60;78.60;;;;;;5085751;28;20045;-52
2022/03/22 07:01:02;;;;;;;18.83;16.65;;;26.60;78.90;;;;;;5086095;28;20299;-52
2022/03/22 07:03:29;;;;;;;21.58;17.42;;;26.60;78.70;;;;;;5085855;28;20335;-58
2022/03/22 07:05:55;;;;;;;18.05;16.02;;;26.60;79.00;;;;;;5085655;28;20052;-50
2022/03/22 07:08:22;;;;;;;18.63;16.73;;;26.60;79.20;;;;;;5086212;28;20044;-50
2022/03/22 07:11:49;;;;;;;19.08;17.08;;;26.70;79.20;;;;;;5085745;28;20073;-55
2022/03/22 07:13:35;;;;;;;20.00;16.80;;;26.60;79.30;;;;;;5085980;28;20040;-51
2022/03/22 07:16:01;;;;;;;18.52;16.73;;;26.60;79.60;;;;;;5086341;28;20070;-49
2022/03/22 07:18:28;;;;;;;21.80;17.85;;;26.60;79.60;;;;;;5085815;28;20167;-48
2022/03/22 07:20:54;;;;;;;18.48;16.55;;;26.60;80.10;;;;;;5085492;28;20090;-48
2022/03/22 07:23:21;;;;;;;21.40;17.15;;;26.60;80.20;;;;;;5085680;28;20050;-47
2022/03/22 07:25:48;;;;;;;23.33;16.73;;;26.60;80.00;;;;;;5085566;28;20070;-48
2022/03/22 07:28:15;;;;;;;21.48;16.50;;;26.60;79.70;;;;;;5085623;28;20111;-48
2022/03/22 07:30:41;;;;;;;20.23;16.17;;;26.60;80.00;;;;;;5085397;28;20346;-49
2022/03/22 07:33:08;;;;;;;17.73;16.02;;;26.60;79.50;;;;;;5085842;28;20074;-47
2022/03/22 07:35:34;;;;;;;19.05;17.08;;;26.60;79.80;;;;;;5085550;28;20047;-49
2022/03/22 07:38:01;;;;;;;19.17;17.15;;;26.60;80.20;;;;;;5085617;28;20028;-50
2022/03/22 07:40:28;;;;;;;19.85;17.80;;;26.60;80.60;;;;;;5085502;28;20035;-49
2022/03/22 07:42:54;;;;;;;20.50;17.70;;;26.60;80.40;;;;;;5085558;28;20032;-49
2022/03/22 07:45:21;;;;;;;18.90;17.00;;;26.60;80.30;;;;;;5085759;28;20024;-53
2022/03/22 07:47:48;;;;;;;19.20;17.25;;;26.60;80.50;;;;;;5085708;28;20029;-49
2022/03/22 07:53:06;;;;;;;20.70;16.98;;;26.60;80.20;;;;;;5085502;28;20260;-48
2022/03/22 07:55:35;;;;;;;18.65;16.63;;;26.60;80.10;;;;;;5084842;28;20146;-52
2022/03/22 07:58:05;;;;;;;20.70;17.23;;;26.60;80.20;;;;;;5083912;28;20044;-52
2022/03/22 08:00:35;;;;;;;19.00;16.98;;;26.50;80.80;;;;;;5084951;28;20033;-58
2022/03/22 08:03:08;;;;;;;21.88;16.83;;;26.50;80.50;;;;;;5085445;28;20053;-57
2022/03/22 08:05:35;;;;;;;18.30;16.42;;;26.60;80.70;;;;;;5084756;28;20074;-58
2022/03/22 08:08:05;;;;;;;19.42;17.58;;;26.50;80.90;;;;;;5085130;28;20201;-57
2022/03/22 08:10:32;;;;;;;20.35;17.00;;;26.50;81.10;;;;;;5085046;28;20032;-49
2022/03/22 08:13:00;;;;;;;19.10;17.08;;;26.50;81.50;;;;;;5084823;28;20204;-50
2022/03/22 08:15:27;;;;;;;22.17;17.33;;;26.50;81.40;;;;;;5084520;28;20029;-50
2022/03/22 08:17:54;;;;;;;20.15;17.73;;;26.50;81.50;;;;;;5084823;28;20059;-49
2022/03/22 08:20:22;;;;;;;19.25;17.02;;;26.50;81.40;;;;;;5084551;28;20246;-49
2022/03/22 08:22:51;;;;;;;18.52;16.55;;;26.50;81.30;;;;;;5084927;28;20251;-53
2022/03/22 08:25:29;;;;;;;21.02;16.63;;;26.50;81.40;;;;;;5084907;28;20070;-50
2022/03/22 08:27:59;;;;;;;20.88;16.52;;;26.50;81.30;;;;;;5084914;28;20024;-48
2022/03/22 08:30:26;;;;;;;19.38;17.17;;;26.40;81.20;;;;;;5084457;28;20099;-49
2022/03/22 08:33:00;;;;;;;19.38;17.33;;;26.50;81.00;;;;;;5084796;28;20066;-54
2022/03/22 08:35:28;;;;;;;18.77;16.67;;;26.50;81.10;;;;;;5084096;28;20036;-53
2022/03/22 08:37:55;;;;;;;18.20;16.40;;;26.50;80.90;;;;;;5084882;28;20160;-59
2022/03/22 08:40:23;;;;;;;21.15;16.95;;;26.40;80.90;;;;;;5084319;28;20040;-49
2022/03/22 08:42:52;;;;;;;21.42;16.77;;;26.50;80.90;;;;;;5084435;28;20066;-50
2022/03/22 08:45:22;;;;;;;21.60;16.98;;;26.50;80.90;;;;;;5084202;28;20024;-48
2022/03/22 08:47:50;;;;;;;18.65;16.52;;;26.40;81.20;;;;;;5084510;28;20036;-53
2022/03/22 08:50:19;;;;;;;24.42;17.15;;;26.50;81.30;;;;;;5084300;28;20021;-53
2022/03/22 08:52:50;;;;;;;19.17;16.65;;;26.50;81.40;;;;;;5084509;28;20028;-49
2022/03/22 08:55:18;;;;;;;19.58;16.63;;;26.40;81.10;;;;;;5084508;28;20256;-51
2022/03/22 08:57:47;;;;;;;17.67;15.88;;;26.40;80.90;;;;;;5083937;28;20340;-49
2022/03/22 09:00:16;;;;;;;19.52;16.38;;;26.40;80.90;;;;;;5084176;28;20339;-50
2022/03/22 09:02:46;;;;;;;19.30;16.25;;;26.50;81.10;;;;;;5084309;28;20031;-49
2022/03/22 09:08:00;;;;;;;23.80;16.63;;;26.40;81.00;;;;;;5084291;28;20023;-50
2022/03/22 09:10:31;;;;;;;20.33;17.08;;;26.40;81.80;;;;;;5083571;28;20051;-49
2022/03/22 09:12:58;;;;;;;19.10;15.50;;;26.50;81.40;;;;;;5084460;28;20021;-48
2022/03/22 09:15:26;;;;;;;18.65;16.70;;;26.40;81.10;;;;;;5083914;28;20047;-48
2022/03/22 09:17:54;;;;;;;21.00;16.23;;;26.40;80.80;;;;;;5084591;28;20027;-47
2022/03/22 09:20:21;;;;;;;18.80;15.40;;;26.40;81.10;;;;;;5084047;28;20023;-52
2022/03/22 09:22:49;;;;;;;18.25;15.88;;;26.50;81.00;;;;;;5084513;28;20028;-50
2022/03/22 09:25:17;;;;;;;17.70;15.80;;;26.50;81.00;;;;;;5083747;28;20025;-51
2022/03/22 09:27:44;;;;;;;19.52;16.55;;;26.50;81.20;;;;;;5084350;28;20154;-50
2022/03/22 09:30:12;;;;;;;19.65;15.25;;;26.50;81.20;;;;;;5083556;28;20042;-50
2022/03/22 09:32:40;;;;;;;17.55;15.65;;;26.40;81.20;;;;;;5084216;28;20033;-49
2022/03/22 09:35:10;;;;;;;18.17;16.35;;;26.50;81.50;;;;;;5083543;28;20028;-49
2022/03/22 09:37:37;;;;;;;17.63;15.80;;;26.40;81.80;;;;;;5084571;28;20017;-47
2022/03/22 09:40:05;;;;;;;19.67;16.70;;;26.40;82.20;;;;;;5083793;28;20324;-47
2022/03/22 09:42:32;;;;;;;20.45;16.58;;;26.50;82.40;;;;;;5083723;28;20033;-49
2022/03/22 09:45:02;;;;;;;18.77;16.48;;;26.40;82.60;;;;;;5083413;28;20039;-52
2022/03/22 09:47:29;;;;;;;23.23;15.70;;;26.40;82.60;;;;;;5083887;28;20360;-50
2022/03/22 09:49:56;;;;;;;18.92;16.70;;;26.40;81.90;;;;;;5083477;28;20028;-49
2022/03/22 09:52:23;;;;;;;21.48;16.85;;;26.40;82.70;;;;;;5083833;28;20036;-49
2022/03/22 09:54:50;;;;;;;19.48;16.10;;;26.40;82.10;;;;;;5083323;28;20032;-55
2022/03/22 09:57:17;;;;;;;19.73;16.60;;;26.40;82.20;;;;;;5083656;28;20040;-49
2022/03/22 09:59:43;;;;;;;21.02;17.27;;;26.40;82.40;;;;;;5083614;28;20255;-55
2022/03/22 10:02:10;;;;;;;18.10;16.20;;;26.40;82.50;;;;;;5083656;28;20025;-54
2022/03/22 10:04:42;;;;;;;24.70;17.10;;;26.40;82.50;;;;;;5083266;28;20060;-55
2022/03/22 10:07:18;;;;;;;18.23;16.25;;;26.30;82.00;;;;;;5083575;28;20327;-53
2022/03/22 10:09:54;;;;;;;22.45;17.55;;;26.30;82.00;;;;;;5083606;28;20099;-49
2022/03/22 10:12:35;;;;;;;33.50;18.27;;;26.30;82.20;;;;;;5083858;28;20032;-49
2022/03/22 10:15:09;;;;;;;24.15;16.83;;;26.40;82.70;;;;;;5083557;28;20032;-49
2022/03/22 10:17:36;;;;;;;21.80;17.00;;;26.30;82.60;;;;;;5083855;28;20029;-50
2022/03/22 10:20:05;;;;;;;20.23;17.05;;;26.30;82.90;;;;;;5083237;28;20028;-49
2022/03/22 10:22:33;;;;;;;21.05;16.33;;;26.30;82.80;;;;;;5086295;28;20013;-49
2022/03/22 10:25:03;;;;;;;22.67;17.20;;;26.30;82.60;;;;;;5086550;28;20028;-49
2022/03/22 10:27:38;;;;;;;22.85;17.67;;;26.30;82.90;;;;;;5086991;28;20308;-49
2022/03/22 10:30:07;;;;;;;23.83;19.30;;;26.30;83.30;;;;;;5086434;28;20316;-48
2022/03/22 10:32:40;;;;;;;28.52;19.35;;;26.30;83.30;;;;;;5087046;28;20464;-49
2022/03/22 10:35:24;;;;;;;22.70;17.85;;;26.30;83.30;;;;;;5086462;28;20033;-47
2022/03/22 10:37:55;;;;;;;24.48;18.05;;;26.30;83.40;;;;;;5087072;28;20017;-49
2022/03/22 10:40:28;;;;;;;23.77;18.45;;;26.30;83.70;;;;;;5086532;28;20066;-49
2022/03/22 10:42:58;;;;;;;25.25;17.73;;;26.30;84.40;;;;;;5086771;28;20020;-49
2022/03/22 10:45:30;;;;;;;22.98;18.40;;;26.30;84.00;;;;;;5086297;28;20024;-53
2022/03/22 10:47:57;;;;;;;29.75;20.08;;;26.30;83.90;;;;;;5086695;28;20025;-52
2022/03/22 10:50:26;;;;;;;27.13;18.45;;;26.30;84.30;;;;;;5086205;28;20040;-49
2022/03/22 10:52:54;;;;;;;22.67;18.10;;;26.30;84.70;;;;;;5086777;28;20185;-48
2022/03/22 10:55:22;;;;;;;27.05;18.73;;;26.30;84.50;;;;;;5086314;28;20016;-49
2022/03/22 10:57:53;;;;;;;23.63;17.88;;;26.30;84.30;;;;;;5086149;28;20409;-52
2022/03/22 11:00:21;;;;;;;24.95;18.15;;;26.30;84.30;;;;;;5086096;28;20020;-47
2022/03/22 11:02:51;;;;;;;28.60;18.35;;;26.30;84.50;;;;;;5086673;28;20033;-45
2022/03/22 11:05:22;;;;;;;28.35;17.70;;;26.30;84.10;;;;;;5085723;28;20032;-46
2022/03/22 11:07:53;;;;;;;26.35;18.08;;;26.30;84.10;;;;;;5086412;28;20052;-45
2022/03/22 11:10:29;;;;;;;41.60;19.85;;;26.30;84.20;;;;;;5086042;28;20328;-54
2022/03/22 11:13:00;;;;;;;28.98;18.27;;;26.30;84.40;;;;;;5086273;28;20196;-52
2022/03/22 11:15:37;;;;;;;25.38;18.33;;;26.30;85.10;;;;;;5085680;28;20036;-59
2022/03/22 11:18:07;;;;;;;23.13;18.30;;;26.30;85.20;;;;;;5086128;28;20028;-50
2022/03/22 11:20:34;;;;;;;31.17;19.40;;;26.30;85.30;;;;;;5085754;28;20198;-49
2022/03/22 11:23:01;;;;;;;30.17;19.42;;;26.30;85.50;;;;;;5086698;28;20016;-47
2022/03/22 11:25:35;;;;;;;24.92;18.33;;;26.30;85.80;;;;;;5086012;28;20024;-44
2022/03/22 11:28:09;;;;;;;28.27;18.67;;;26.30;85.80;;;;;;5086436;28;20040;-49
2022/03/22 11:30:40;;;;;;;25.63;19.25;;;26.30;85.90;;;;;;5085693;28;20032;-44
2022/03/22 11:35:59;;;;;;;27.30;18.48;;;26.30;85.70;;;;;;5085748;28;20091;-43
2022/03/22 11:38:45;;;;;;;23.60;19.70;;;26.30;85.60;;;;;;5085588;28;20052;-45
2022/03/22 11:44:39;;;;;;;28.42;19.58;;;26.30;85.80;;;;;;5083391;28;20040;-43
2022/03/22 11:47:17;;;;;;;28.70;18.58;;;26.30;85.20;;;;;;5083647;28;20020;-45
2022/03/22 11:49:58;;;;;;;26.48;18.35;;;26.30;85.00;;;;;;5083368;28;20306;-43
2022/03/22 11:52:47;;;;;;;40.33;19.63;;;26.30;84.80;;;;;;5083510;28;20319;-49
2022/03/22 11:55:25;;;;;;;26.90;18.52;;;26.20;84.00;;;;;;5083221;28;20040;-46
2022/03/22 11:58:00;;;;;;;30.77;18.35;;;26.20;84.50;;;;;;5083726;28;20082;-46
2022/03/22 12:00:42;;;;;;;21.98;18.05;;;26.20;84.50;;;;;;5085254;28;20092;-51
2022/03/22 12:03:14;;;;;;;21.35;18.85;;;26.20;84.40;;;;;;5085095;28;20362;-46
2022/03/22 12:05:41;;;;;;;22.58;18.85;;;26.20;84.80;;;;;;5085005;28;20312;-52
2022/03/22 12:08:19;;;;;;;24.55;19.00;;;26.20;85.30;;;;;;5085228;28;20020;-55
2022/03/22 12:10:48;;;;;;;30.63;19.63;;;26.20;85.90;;;;;;5084755;28;20426;-45
2022/03/22 12:13:15;;;;;;;27.27;19.45;;;26.20;85.70;;;;;;5084703;28;20370;-46
2022/03/22 12:15:42;;;;;;;23.77;20.42;;;26.20;86.10;;;;;;5085287;28;20239;-47
2022/03/22 12:18:10;;;;;;;25.10;21.33;;;26.20;86.90;;;;;;5084987;28;20028;-51
2022/03/22 12:20:38;;;;;;;22.52;20.00;;;26.20;87.40;;;;;;5085177;28;20020;-48
2022/03/22 12:23:06;;;;;;;24.02;21.13;;;26.20;87.50;;;;;;5085923;28;20033;-49
2022/03/22 12:25:37;;;;;;;27.13;20.58;;;26.20;88.20;;;;;;5085165;28;20043;-52
2022/03/22 12:28:09;;;;;;;24.20;19.65;;;26.20;88.50;;;;;;5085557;28;20036;-45
2022/03/22 12:30:41;;;;;;;23.27;20.60;;;26.20;89.00;;;;;;5085186;28;20220;-48
2022/03/22 12:33:11;;;;;;;25.73;21.15;;;26.20;88.90;;;;;;5085790;28;20173;-45
2022/03/22 12:35:39;;;;;;;23.48;21.10;;;26.10;89.40;;;;;;5084950;28;20029;-45
2022/03/22 12:38:06;;;;;;;24.00;19.52;;;26.10;89.80;;;;;;5085615;28;20039;-53
2022/03/22 12:40:33;;;;;;;23.73;20.70;;;26.00;89.10;;;;;;5085100;28;20013;-50
2022/03/22 12:43:01;;;;;;;23.05;20.77;;;26.10;89.40;;;;;;5085084;28;20077;-49
2022/03/22 12:45:29;;;;;;;24.25;21.38;;;26.10;89.80;;;;;;5084196;28;20032;-51
2022/03/22 12:47:57;;;;;;;23.15;20.02;;;26.10;90.10;;;;;;5084879;28;20358;-46
2022/03/22 12:50:25;;;;;;;27.30;19.33;;;26.10;90.00;;;;;;5084323;28;20070;-47
2022/03/22 12:52:52;;;;;;;21.88;19.60;;;26.10;90.00;;;;;;5085168;28;20040;-44
2022/03/22 12:55:20;;;;;;;22.23;19.95;;;26.10;89.60;;;;;;5084801;28;20032;-45
2022/03/22 12:57:48;;;;;;;25.38;19.33;;;26.10;89.70;;;;;;5084635;28;20052;-45
2022/03/22 13:00:33;;;;;;;25.73;18.88;;;26.10;89.90;;;;;;5084629;28;20037;-44
2022/03/22 13:03:14;;;;;;;19.55;17.52;;;26.10;90.00;;;;;;5084876;28;20026;-47
2022/03/22 13:05:48;;;;;;;21.50;18.80;;;26.10;89.70;;;;;;5084028;28;20029;-44